Time;durP1;ratioP1;P1;durP2;ratioP2;P2;SDS_P1;SDS_P2;PMS_P1;PMS_P2;Temp;Humidity;BMP_temperature;BMP_pressure;BME280_temperature;BME280_humidity;BME280_pressure;Samples;Min_cycle;Max_cycle;Signal;HPM_P1;HPM_P2
2022/02/16 00:01:17;;;;;;;;;;;;;;;;;;5059880;28;19970;-48
2022/02/16 00:03:42;;;;;;;;;;;;;;;;;;5055201;28;19996;-49
2022/02/16 00:06:07;;;;;;;;;;;;;;;;;;5059371;28;20043;-47
2022/02/16 00:08:33;;;;;;;;;;;;;;;;;;5058378;28;19917;-49
2022/02/16 00:10:58;;;;;;;;;;;;;;;;;;5054268;28;20030;-47
2022/02/16 00:13:23;;;;;;;;;;;;;;;;;;5053620;28;19917;-44
2022/02/16 00:15:48;;;;;;;;;;;;;;;;;;5053883;28;20398;-48
2022/02/16 00:18:14;;;;;;;;;;;;;;;;;;5052178;28;19917;-47
2022/02/16 00:20:40;;;;;;;;;;;;;;;;;;5052816;28;19912;-45
2022/02/16 00:23:05;;;;;;;;;;;;;;;;;;5055937;28;19915;-48
2022/02/16 00:25:30;;;;;;;;;;;;;;;;;;5053639;28;19916;-50
2022/02/16 00:27:55;;;;;;;;;;;;;;;;;;5055147;28;19912;-49
2022/02/16 00:30:20;;;;;;;;;;;;;;;;;;5051645;28;19967;-49
2022/02/16 00:32:45;;;;;;;;;;;;;;;;;;5053205;28;19917;-47
2022/02/16 00:35:10;;;;;;;;;;;;;;;;;;5051267;28;19981;-50
2022/02/16 00:37:36;;;;;;;;;;;;;;;;;;5052905;28;19917;-48
2022/02/16 00:40:01;;;;;;;;;;;;;;;;;;5055353;28;19948;-48
2022/02/16 00:42:26;;;;;;;;;;;;;;;;;;5054907;28;19916;-45
2022/02/16 00:44:52;;;;;;;;;;;;;;;;;;5052800;28;19960;-50
2022/02/16 00:47:17;;;;;;;;;;;;;;;;;;5053308;28;19913;-51
2022/02/16 00:49:42;;;;;;;;;;;;;;;;;;5050355;28;19929;-48
2022/02/16 00:52:07;;;;;;;;;;;;;;;;;;5052206;28;20347;-47
2022/02/16 00:54:34;;;;;;;;;;;;;;;;;;5054826;28;20553;-49
2022/02/16 00:57:01;;;;;;;;;;;;;;;;;;5055588;28;19989;-48
2022/02/16 00:59:26;;;;;;;;;;;;;;;;;;5053962;28;19944;-50
2022/02/16 01:01:51;;;;;;;;;;;;;;;;;;5054886;28;19950;-50
2022/02/16 01:04:16;;;;;;;;;;;;;;;;;;5053705;28;20410;-47
2022/02/16 01:06:41;;;;;;;;;;;;;;;;;;5052573;28;19992;-50
2022/02/16 01:09:06;;;;;;;;;;;;;;;;;;5055772;28;19920;-47
2022/02/16 01:11:32;;;;;;;;;;;;;;;;;;5056343;28;19920;-51
2022/02/16 01:13:57;;;;;;;;;;;;;;;;;;5055317;28;19952;-52
2022/02/16 01:16:22;;;;;;;;;;;;;;;;;;5054472;28;19948;-50
2022/02/16 01:18:49;;;;;;;;;;;;;;;;;;5053579;28;20020;-49
2022/02/16 01:21:15;;;;;;;;;;;;;;;;;;5052040;28;19912;-47
2022/02/16 01:23:40;;;;;;;;;;;;;;;;;;5052939;28;19969;-52
2022/02/16 01:26:05;;;;;;;;;;;;;;;;;;5052561;28;19964;-54
2022/02/16 01:28:30;;;;;;;;;;;;;;;;;;5054012;28;19934;-48
2022/02/16 01:30:56;;;;;;;;;;;;;;;;;;5049595;28;19917;-47
2022/02/16 01:33:21;;;;;;;;;;;;;;;;;;5050777;28;20609;-45
2022/02/16 01:35:46;;;;;;;;;;;;;;;;;;5050699;28;20012;-48
2022/02/16 01:38:11;;;;;;;;;;;;;;;;;;5053262;28;20303;-49
2022/02/16 01:40:36;;;;;;;;;;;;;;;;;;5054108;28;19909;-47
2022/02/16 01:43:02;;;;;;;;;;;;;;;;;;5052010;28;19917;-47
2022/02/16 01:45:27;;;;;;;;;;;;;;;;;;5052524;28;19913;-49
2022/02/16 01:47:52;;;;;;;;;;;;;;;;;;5055250;28;20409;-45
2022/02/16 01:50:17;;;;;;;;;;;;;;;;;;5053419;28;19929;-43
2022/02/16 01:52:42;;;;;;;;;;;;;;;;;;5052442;28;20336;-50
2022/02/16 01:55:07;;;;;;;;;;;;;;;;;;5052683;28;20398;-46
2022/02/16 01:57:34;;;;;;;;;;;;;;;;;;5049380;28;19923;-47
2022/02/16 01:59:59;;;;;;;;;;;;;;;;;;5051568;28;19912;-48
2022/02/16 02:02:24;;;;;;;;;;;;;;;;;;5049653;28;20256;-44
2022/02/16 02:04:49;;;;;;;;;;;;;;;;;;5051103;28;19948;-50
2022/02/16 02:07:14;;;;;;;;;;;;;;;;;;5052755;28;19967;-44
2022/02/16 02:09:39;;;;;;;;;;;;;;;;;;5053645;28;19917;-46
2022/02/16 02:12:05;;;;;;;;;;;;;;;;;;5053862;28;20370;-50
2022/02/16 02:14:30;;;;;;;;;;;;;;;;;;5053417;28;19917;-48
2022/02/16 02:16:55;;;;;;;;;;;;;;;;;;5052976;28;20283;-45
2022/02/16 02:19:20;;;;;;;;;;;;;;;;;;5053488;28;19909;-48
2022/02/16 02:21:45;;;;;;;;;;;;;;;;;;5057730;28;19909;-46
2022/02/16 02:24:10;;;;;;;;;;;;;;;;;;5056975;28;20391;-48
2022/02/16 02:26:36;;;;;;;;;;;;;;;;;;5053463;28;19916;-46
2022/02/16 02:29:01;;;;;;;;;;;;;;;;;;5053282;28;19920;-45
2022/02/16 02:31:26;;;;;;;;;;;;;;;;;;5054737;28;19927;-47
2022/02/16 02:33:51;;;;;;;;;;;;;;;;;;5051334;28;19917;-46
2022/02/16 02:36:16;;;;;;;;;;;;;;;;;;5052541;28;20326;-49
2022/02/16 02:38:41;;;;;;;;;;;;;;;;;;5052206;28;19913;-50
2022/02/16 02:41:06;;;;;;;;;;;;;;;;;;5052470;28;19913;-48
2022/02/16 02:43:32;;;;;;;;;;;;;;;;;;5054197;28;20229;-48
2022/02/16 02:45:57;;;;;;;;;;;;;;;;;;5054753;28;20561;-50
2022/02/16 02:48:22;;;;;;;;;;;;;;;;;;5052090;28;20273;-47
2022/02/16 02:50:47;;;;;;;;;;;;;;;;;;5051369;28;19920;-49
2022/02/16 02:53:12;;;;;;;;;;;;;;;;;;5050065;28;20471;-51
2022/02/16 02:55:37;;;;;;;;;;;;;;;;;;5053198;28;19913;-49
2022/02/16 02:58:03;;;;;;;;;;;;;;;;;;5054647;28;19923;-50
2022/02/16 03:00:28;;;;;;;;;;;;;;;;;;5053606;28;20676;-50
2022/02/16 03:02:53;;;;;;;;;;;;;;;;;;5054000;28;19983;-49
2022/02/16 03:05:18;;;;;;;;;;;;;;;;;;5054057;28;20655;-48
2022/02/16 03:07:43;;;;;;;;;;;;;;;;;;5053870;28;19916;-49
2022/02/16 03:10:08;;;;;;;;;;;;;;;;;;5054813;28;19916;-50
2022/02/16 03:12:33;;;;;;;;;;;;;;;;;;5056050;28;19916;-46
2022/02/16 03:14:59;;;;;;;;;;;;;;;;;;5056045;28;19920;-49
2022/02/16 03:17:28;;;;;;;;;;;;;;;;;;5054060;28;20408;-51
2022/02/16 03:19:53;;;;;;;;;;;;;;;;;;5052576;28;19920;-46
2022/02/16 03:22:21;;;;;;;;;;;;;;;;;;5053334;28;19916;-49
2022/02/16 03:24:46;;;;;;;;;;;;;;;;;;5052900;28;19920;-49
2022/02/16 03:27:12;;;;;;;;;;;;;;;;;;5054165;28;19908;-48
2022/02/16 03:29:37;;;;;;;;;;;;;;;;;;5052242;28;20563;-45
2022/02/16 03:32:02;;;;;;;;;;;;;;;;;;5055783;28;19915;-48
2022/02/16 03:34:27;;;;;;;;;;;;;;;;;;5058021;28;19913;-51
2022/02/16 03:36:52;;;;;;;;;;;;;;;;;;5057910;28;20340;-48
2022/02/16 03:39:17;;;;;;;;;;;;;;;;;;5057301;28;19931;-47
2022/02/16 03:41:42;;;;;;;;;;;;;;;;;;5053841;28;20285;-49
2022/02/16 03:44:08;;;;;;;;;;;;;;;;;;5056037;28;19912;-49
2022/02/16 03:46:33;;;;;;;;;;;;;;;;;;5056307;28;19924;-49
2022/02/16 03:48:58;;;;;;;;;;;;;;;;;;5055189;28;19986;-49
2022/02/16 03:51:23;;;;;;;;;;;;;;;;;;5053552;28;19978;-50
2022/02/16 03:53:48;;;;;;;;;;;;;;;;;;5053431;28;20038;-50
2022/02/16 03:56:13;;;;;;;;;;;;;;;;;;5053643;28;19917;-47
2022/02/16 03:58:39;;;;;;;;;;;;;;;;;;5050366;28;20335;-47
2022/02/16 04:01:04;;;;;;;;;;;;;;;;;;5052335;28;19916;-46
2022/02/16 04:03:29;;;;;;;;;;;;;;;;;;5054146;28;20370;-52
2022/02/16 04:05:54;;;;;;;;;;;;;;;;;;5053968;28;19913;-51
2022/02/16 04:08:19;;;;;;;;;;;;;;;;;;5056939;28;19916;-50
2022/02/16 04:10:44;;;;;;;;;;;;;;;;;;5051105;28;20315;-51
2022/02/16 04:13:09;;;;;;;;;;;;;;;;;;5054070;28;19970;-48
2022/02/16 04:15:35;;;;;;;;;;;;;;;;;;5056108;28;20407;-49
2022/02/16 04:18:00;;;;;;;;;;;;;;;;;;5055051;28;19944;-50
2022/02/16 04:20:25;;;;;;;;;;;;;;;;;;5055136;28;19917;-51
2022/02/16 04:22:50;;;;;;;;;;;;;;;;;;5052180;28;19920;-47
2022/02/16 04:25:16;;;;;;;;;;;;;;;;;;5055887;28;19912;-50
2022/02/16 04:27:41;;;;;;;;;;;;;;;;;;5051555;28;20269;-51
2022/02/16 04:30:06;;;;;;;;;;;;;;;;;;5054178;28;19920;-48
2022/02/16 04:32:31;;;;;;;;;;;;;;;;;;5054948;28;19912;-46
2022/02/16 04:34:56;;;;;;;;;;;;;;;;;;5050509;28;19983;-50
2022/02/16 04:37:21;;;;;;;;;;;;;;;;;;5051207;28;19919;-48
2022/02/16 04:39:46;;;;;;;;;;;;;;;;;;5054239;28;20029;-48
2022/02/16 04:42:12;;;;;;;;;;;;;;;;;;5052661;28;20019;-49
2022/02/16 04:44:37;;;;;;;;;;;;;;;;;;5052498;28;20342;-48
2022/02/16 04:47:02;;;;;;;;;;;;;;;;;;5052238;28;19908;-48
2022/02/16 04:49:27;;;;;;;;;;;;;;;;;;5054719;28;19925;-47
2022/02/16 04:51:52;;;;;;;;;;;;;;;;;;5054789;28;20525;-48
2022/02/16 04:54:17;;;;;;;;;;;;;;;;;;5057319;28;19912;-48
2022/02/16 04:56:42;;;;;;;;;;;;;;;;;;5056386;28;19920;-47
2022/02/16 04:59:08;;;;;;;;;;;;;;;;;;5056938;28;20353;-49
2022/02/16 05:01:33;;;;;;;;;;;;;;;;;;5053565;28;20406;-47
2022/02/16 05:03:59;;;;;;;;;;;;;;;;;;5056405;28;19913;-47
2022/02/16 05:06:24;;;;;;;;;;;;;;;;;;5055269;28;20020;-47
2022/02/16 05:08:49;;;;;;;;;;;;;;;;;;5053766;28;19913;-48
2022/02/16 05:11:14;;;;;;;;;;;;;;;;;;5054522;28;19920;-47
2022/02/16 05:13:40;;;;;;;;;;;;;;;;;;5055515;28;20342;-45
2022/02/16 05:16:05;;;;;;;;;;;;;;;;;;5055557;28;20261;-46
2022/02/16 05:18:33;;;;;;;;;;;;;;;;;;5055651;28;19975;-48
2022/02/16 05:20:58;;;;;;;;;;;;;;;;;;5055228;28;19913;-46
2022/02/16 05:23:23;;;;;;;;;;;;;;;;;;5054490;28;19999;-46
2022/02/16 05:25:48;;;;;;;;;;;;;;;;;;5053368;28;20583;-44
2022/02/16 05:28:13;;;;;;;;;;;;;;;;;;5054489;28;19923;-46
2022/02/16 05:30:39;;;;;;;;;;;;;;;;;;5055060;28;20368;-45
2022/02/16 05:33:04;;;;;;;;;;;;;;;;;;5054702;28;19912;-48
2022/02/16 05:35:29;;;;;;;;;;;;;;;;;;5053380;28;19912;-50
2022/02/16 05:37:54;;;;;;;;;;;;;;;;;;5053990;28;19942;-47
2022/02/16 05:40:19;;;;;;;;;;;;;;;;;;5062683;28;20004;-47
2022/02/16 05:42:45;;;;;;;;;;;;;;;;;;5053373;28;19924;-45
2022/02/16 05:45:10;;;;;;;;;;;;;;;;;;5051614;28;20525;-45
2022/02/16 05:47:35;;;;;;;;;;;;;;;;;;5056422;28;19919;-49
2022/02/16 05:50:00;;;;;;;;;;;;;;;;;;5053962;28;19924;-45
2022/02/16 05:52:25;;;;;;;;;;;;;;;;;;5054300;28;20383;-46
2022/02/16 05:54:50;;;;;;;;;;;;;;;;;;5056830;28;19946;-48
2022/02/16 05:57:16;;;;;;;;;;;;;;;;;;5052420;28;20540;-47
2022/02/16 05:59:41;;;;;;;;;;;;;;;;;;5051687;28;19920;-50
2022/02/16 06:02:06;;;;;;;;;;;;;;;;;;5051529;28;19928;-48
2022/02/16 06:04:31;;;;;;;;;;;;;;;;;;5055748;28;20349;-45
2022/02/16 06:06:56;;;;;;;;;;;;;;;;;;5052067;28;20521;-49
2022/02/16 06:09:22;;;;;;;;;;;;;;;;;;5051332;28;19966;-49
2022/02/16 06:11:47;;;;;;;;;;;;;;;;;;5059329;28;20287;-47
2022/02/16 06:14:12;;;;;;;;;;;;;;;;;;5047656;28;20618;-48
2022/02/16 06:16:37;;;;;;;;;;;;;;;;;;5051528;28;20460;-47
2022/02/16 06:19:02;;;;;;;;;;;;;;;;;;5053065;28;20427;-47
2022/02/16 06:21:28;;;;;;;;;;;;;;;;;;5052941;28;19916;-50
2022/02/16 06:23:53;;;;;;;;;;;;;;;;;;5054685;28;20368;-51
2022/02/16 06:26:18;;;;;;;;;;;;;;;;;;5051077;28;19913;-49
2022/02/16 06:28:43;;;;;;;;;;;;;;;;;;5053503;28;19990;-48
2022/02/16 06:31:09;;;;;;;;;;;;;;;;;;5055920;28;19924;-50
2022/02/16 06:33:34;;;;;;;;;;;;;;;;;;5057209;28;19978;-50
2022/02/16 06:35:59;;;;;;;;;;;;;;;;;;5058100;28;19966;-50
2022/02/16 06:38:24;;;;;;;;;;;;;;;;;;5061356;28;19974;-50
2022/02/16 06:40:50;;;;;;;;;;;;;;;;;;5056998;28;19959;-48
2022/02/16 06:43:15;;;;;;;;;;;;;;;;;;5061575;28;19944;-47
2022/02/16 06:45:40;;;;;;;;;;;;;;;;;;5060273;28;19908;-55
2022/02/16 06:48:05;;;;;;;;;;;;;;;;;;5058545;28;19912;-49
2022/02/16 06:50:30;;;;;;;;;;;;;;;;;;5058743;28;20046;-46
2022/02/16 06:52:55;;;;;;;;;;;;;;;;;;5056519;28;19925;-48
2022/02/16 06:55:21;;;;;;;;;;;;;;;;;;5058410;28;19940;-51
2022/02/16 06:57:46;;;;;;;;;;;;;;;;;;5057857;28;20320;-46
2022/02/16 07:00:11;;;;;;;;;;;;;;;;;;5059073;28;19913;-47
2022/02/16 07:02:36;;;;;;;;;;;;;;;;;;5062390;28;19923;-44
2022/02/16 07:05:01;;;;;;;;;;;;;;;;;;5058965;28;19956;-50
2022/02/16 07:07:29;;;;;;;;;;;;;;;;;;5058744;28;20348;-49
2022/02/16 07:09:54;;;;;;;;;;;;;;;;;;5058805;28;19928;-46
2022/02/16 07:12:20;;;;;;;;;;;;;;;;;;5055885;28;19921;-48
2022/02/16 07:14:47;;;;;;;;;;;;;;;;;;5058196;28;19959;-52
2022/02/16 07:17:13;;;;;;;;;;;;;;;;;;5056823;28;20047;-53
2022/02/16 07:19:38;;;;;;;;;;;;;;;;;;5055031;28;20393;-54
2022/02/16 07:22:04;;;;;;;;;;;;;;;;;;5056680;28;20399;-51
2022/02/16 07:24:29;;;;;;;;;;;;;;;;;;5060125;28;19999;-53
2022/02/16 07:26:59;;;;;;;;;;;;;;;;;;5059779;28;19913;-51
2022/02/16 07:29:24;;;;;;;;;;;;;;;;;;5057142;28;19927;-51
2022/02/16 07:31:49;;;;;;;;;;;;;;;;;;5059004;28;20291;-54
2022/02/16 07:34:14;;;;;;;;;;;;;;;;;;5056225;28;19917;-52
2022/02/16 07:36:40;;;;;;;;;;;;;;;;;;5057879;28;20046;-49
2022/02/16 07:39:05;;;;;;;;;;;;;;;;;;5056043;28;19930;-50
2022/02/16 07:41:30;;;;;;;;;;;;;;;;;;5054908;28;19916;-41
2022/02/16 07:43:55;;;;;;;;;;;;;;;;;;5056545;28;19916;-45
2022/02/16 07:46:20;;;;;;;;;;;;;;;;;;5057260;28;20023;-43
2022/02/16 07:48:46;;;;;;;;;;;;;;;;;;5053149;28;19933;-42
2022/02/16 07:51:11;;;;;;;;;;;;;;;;;;5061484;28;20388;-45
2022/02/16 07:53:37;;;;;;;;;;;;;;;;;;5059154;28;19920;-47
2022/02/16 07:56:02;;;;;;;;;;;;;;;;;;5058906;28;20662;-46
2022/02/16 07:58:27;;;;;;;;;;;;;;;;;;5058167;28;19912;-44
2022/02/16 08:00:52;;;;;;;;;;;;;;;;;;5054182;28;19978;-44
2022/02/16 08:03:17;;;;;;;;;;;;;;;;;;5056236;28;19909;-45
2022/02/16 08:05:43;;;;;;;;;;;;;;;;;;5056800;28;20425;-45
2022/02/16 08:08:09;;;;;;;;;;;;;;;;;;5055991;28;19978;-44
2022/02/16 08:10:34;;;;;;;;;;;;;;;;;;5055969;28;20032;-44
2022/02/16 08:12:59;;;;;;;;;;;;;;;;;;5055285;28;19908;-44
2022/02/16 08:15:24;;;;;;;;;;;;;;;;;;5056767;28;19924;-41
2022/02/16 08:17:50;;;;;;;;;;;;;;;;;;5058389;28;19909;-42
2022/02/16 08:20:15;;;;;;;;;;;;;;;;;;5056630;28;19939;-41
2022/02/16 08:22:40;;;;;;;;;;;;;;;;;;5053604;28;20359;-41
2022/02/16 08:25:05;;;;;;;;;;;;;;;;;;5055009;28;20038;-51
2022/02/16 08:27:30;;;;;;;;;;;;;;;;;;5058309;28;20067;-58
2022/02/16 08:29:55;;;;;;;;;;;;;;;;;;5055305;28;19917;-59
2022/02/16 08:32:20;;;;;;;;;;;;;;;;;;5054482;28;19916;-59
2022/02/16 08:34:46;;;;;;;;;;;;;;;;;;5054654;28;20011;-58
2022/02/16 08:37:11;;;;;;;;;;;;;;;;;;5055553;28;19927;-58
2022/02/16 08:39:36;;;;;;;;;;;;;;;;;;5054506;28;19917;-58
2022/02/16 08:42:01;;;;;;;;;;;;;;;;;;5052542;28;19913;-58
2022/02/16 08:44:26;;;;;;;;;;;;;;;;;;5052675;28;19913;-58
2022/02/16 08:46:52;;;;;;;;;;;;;;;;;;5053013;28;19974;-58
2022/02/16 08:49:17;;;;;;;;;;;;;;;;;;5056230;28;21010;-58
2022/02/16 08:51:42;;;;;;;;;;;;;;;;;;5052047;28;19913;-58
2022/02/16 08:54:07;;;;;;;;;;;;;;;;;;5051589;28;20291;-58
2022/02/16 08:56:32;;;;;;;;;;;;;;;;;;5049989;28;20303;-58
2022/02/16 08:58:57;;;;;;;;;;;;;;;;;;5054110;28;19913;-58
2022/02/16 09:01:23;;;;;;;;;;;;;;;;;;5054462;28;20477;-58
2022/02/16 09:03:48;;;;;;;;;;;;;;;;;;5054583;28;19966;-58
2022/02/16 09:06:13;;;;;;;;;;;;;;;;;;5053291;28;19999;-58
2022/02/16 09:08:39;;;;;;;;;;;;;;;;;;5051743;28;19920;-58
2022/02/16 09:11:04;;;;;;;;;;;;;;;;;;5052358;28;19982;-58
2022/02/16 09:13:29;;;;;;;;;;;;;;;;;;5051250;28;19913;-58
2022/02/16 09:15:55;;;;;;;;;;;;;;;;;;5054156;28;20066;-58
2022/02/16 09:18:20;;;;;;;;;;;;;;;;;;5052794;28;20427;-59
2022/02/16 09:20:46;;;;;;;;;;;;;;;;;;5051900;28;20008;-55
2022/02/16 09:23:11;;;;;;;;;;;;;;;;;;5051357;28;19994;-55
2022/02/16 09:25:37;;;;;;;;;;;;;;;;;;5050361;28;20415;-55
2022/02/16 09:28:02;;;;;;;;;;;;;;;;;;5053814;28;20009;-56
2022/02/16 09:30:27;;;;;;;;;;;;;;;;;;5052231;28;19917;-57
2022/02/16 09:32:52;;;;;;;;;;;;;;;;;;5051895;28;19917;-56
2022/02/16 09:35:17;;;;;;;;;;;;;;;;;;5053598;28;19913;-53
2022/02/16 09:37:43;;;;;;;;;;;;;;;;;;5053483;28;20023;-56
2022/02/16 09:40:08;;;;;;;;;;;;;;;;;;5056294;28;20508;-53
2022/02/16 09:42:33;;;;;;;;;;;;;;;;;;5053349;28;19951;-56
2022/02/16 09:45:02;;;;;;;;;;;;;;;;;;5052801;28;19921;-54
2022/02/16 09:47:28;;;;;;;;;;;;;;;;;;5051355;28;19967;-57
2022/02/16 09:49:54;;;;;;;;;;;;;;;;;;5050876;28;20040;-56
2022/02/16 09:52:22;;;;;;;;;;;;;;;;;;5050905;28;20045;-58
2022/02/16 09:54:47;;;;;;;;;;;;;;;;;;5051674;28;20412;-58
2022/02/16 09:57:12;;;;;;;;;;;;;;;;;;5053710;28;19966;-58
2022/02/16 09:59:37;;;;;;;;;;;;;;;;;;5049819;28;19912;-58
2022/02/16 10:02:02;;;;;;;;;;;;;;;;;;5051890;28;19912;-58
2022/02/16 10:04:27;;;;;;;;;;;;;;;;;;5057737;28;19917;-58
2022/02/16 10:06:53;;;;;;;;;;;;;;;;;;5054700;28;19912;-58
2022/02/16 10:09:18;;;;;;;;;;;;;;;;;;5056626;28;20407;-58
2022/02/16 10:11:43;;;;;;;;;;;;;;;;;;5057648;28;20423;-58
2022/02/16 10:14:08;;;;;;;;;;;;;;;;;;5058196;28;19920;-58
2022/02/16 10:16:33;;;;;;;;;;;;;;;;;;5055224;28;19913;-58
2022/02/16 10:19:01;;;;;;;;;;;;;;;;;;5056336;28;19979;-58
2022/02/16 10:21:26;;;;;;;;;;;;;;;;;;5056778;28;19913;-58
2022/02/16 10:23:52;;;;;;;;;;;;;;;;;;5054719;28;19961;-58
2022/02/16 10:26:18;;;;;;;;;;;;;;;;;;5055984;28;19913;-58
2022/02/16 10:28:43;;;;;;;;;;;;;;;;;;5055884;28;19920;-58
2022/02/16 10:31:08;;;;;;;;;;;;;;;;;;5056213;28;19916;-58
2022/02/16 10:33:33;;;;;;;;;;;;;;;;;;5055673;28;19924;-58
2022/02/16 10:35:58;;;;;;;;;;;;;;;;;;5060924;28;20368;-58
2022/02/16 10:38:23;;;;;;;;;;;;;;;;;;5053977;28;19976;-58
2022/02/16 10:40:49;;;;;;;;;;;;;;;;;;5057065;28;19919;-58
2022/02/16 10:43:14;;;;;;;;;;;;;;;;;;5055836;28;20440;-58
2022/02/16 10:45:39;;;;;;;;;;;;;;;;;;5059598;28;19920;-58
2022/02/16 10:48:04;;;;;;;;;;;;;;;;;;5055410;28;20371;-58
2022/02/16 10:50:30;;;;;;;;;;;;;;;;;;5052509;28;19987;-58
2022/02/16 10:52:55;;;;;;;;;;;;;;;;;;5053721;28;19913;-58
2022/02/16 10:55:21;;;;;;;;;;;;;;;;;;5054448;28;20301;-58
2022/02/16 10:57:46;;;;;;;;;;;;;;;;;;5056502;28;19920;-58
2022/02/16 11:00:11;;;;;;;;;;;;;;;;;;5054266;28;19962;-58
2022/02/16 11:02:36;;;;;;;;;;;;;;;;;;5056589;28;19958;-58
2022/02/16 11:05:01;;;;;;;;;;;;;;;;;;5055792;28;19958;-58
2022/02/16 11:07:26;;;;;;;;;;;;;;;;;;5056796;28;20462;-59
2022/02/16 11:09:52;;;;;;;;;;;;;;;;;;5053982;28;19924;-59
2022/02/16 11:12:17;;;;;;;;;;;;;;;;;;5056146;28;19923;-58
2022/02/16 11:14:42;;;;;;;;;;;;;;;;;;5056332;28;19990;-58
2022/02/16 11:17:09;;;;;;;;;;;;;;;;;;5056056;28;20320;-58
2022/02/16 11:19:38;;;;;;;;;;;;;;;;;;5057723;28;19922;-58
2022/02/16 11:22:04;;;;;;;;;;;;;;;;;;5055208;28;19920;-58
2022/02/16 11:24:29;;;;;;;;;;;;;;;;;;5060598;28;19908;-58
2022/02/16 11:26:54;;;;;;;;;;;;;;;;;;5060013;28;20287;-56
2022/02/16 11:29:19;;;;;;;;;;;;;;;;;;5057478;28;19921;-56
2022/02/16 11:31:44;;;;;;;;;;;;;;;;;;5061101;28;19917;-56
2022/02/16 11:34:09;;;;;;;;;;;;;;;;;;5062059;28;20358;-58
2022/02/16 11:36:35;;;;;;;;;;;;;;;;;;5059339;28;19923;-58
2022/02/16 11:39:00;;;;;;;;;;;;;;;;;;5056441;28;19909;-58
2022/02/16 11:41:25;;;;;;;;;;;;;;;;;;5056477;28;20283;-58
2022/02/16 11:43:50;;;;;;;;;;;;;;;;;;5058285;28;20043;-58
2022/02/16 11:46:15;;;;;;;;;;;;;;;;;;5055509;28;20345;-58
2022/02/16 11:48:42;;;;;;;;;;;;;;;;;;5056846;28;19982;-58
2022/02/16 11:51:07;;;;;;;;;;;;;;;;;;5057754;28;19921;-58
2022/02/16 11:53:32;;;;;;;;;;;;;;;;;;5054380;28;19974;-59
2022/02/16 11:55:57;;;;;;;;;;;;;;;;;;5056812;28;19913;-58
2022/02/16 11:58:22;;;;;;;;;;;;;;;;;;5059942;28;20265;-58
2022/02/16 12:00:47;;;;;;;;;;;;;;;;;;5059156;28;19955;-58
2022/02/16 12:03:13;;;;;;;;;;;;;;;;;;5057430;28;19909;-58
2022/02/16 12:05:38;;;;;;;;;;;;;;;;;;5056218;28;20329;-58
2022/02/16 12:08:03;;;;;;;;;;;;;;;;;;5058778;28;20295;-58
2022/02/16 12:10:28;;;;;;;;;;;;;;;;;;5056579;28;19939;-58
2022/02/16 12:12:53;;;;;;;;;;;;;;;;;;5057517;28;19913;-58
2022/02/16 12:15:18;;;;;;;;;;;;;;;;;;5060325;28;20229;-58
2022/02/16 12:17:44;;;;;;;;;;;;;;;;;;5056735;28;20148;-58
2022/02/16 12:20:09;;;;;;;;;;;;;;;;;;5054299;28;19909;-59
2022/02/16 12:22:35;;;;;;;;;;;;;;;;;;5057087;28;20418;-58
2022/02/16 12:25:01;;;;;;;;;;;;;;;;;;5058616;28;19916;-58
2022/02/16 12:27:26;;;;;;;;;;;;;;;;;;5059194;28;20009;-58
2022/02/16 12:29:51;;;;;;;;;;;;;;;;;;5057650;28;19975;-58
2022/02/16 12:32:19;;;;;;;;;;;;;;;;;;5058618;28;19912;-58
2022/02/16 12:34:44;;;;;;;;;;;;;;;;;;5056457;28;20012;-58
2022/02/16 12:37:11;;;;;;;;;;;;;;;;;;5057396;28;20027;-58
2022/02/16 12:39:37;;;;;;;;;;;;;;;;;;5056785;28;19951;-58
2022/02/16 12:42:02;;;;;;;;;;;;;;;;;;5056105;28;19979;-58
2022/02/16 12:44:27;;;;;;;;;;;;;;;;;;5057390;28;19916;-58
2022/02/16 12:46:52;;;;;;;;;;;;;;;;;;5057097;28;19908;-58
2022/02/16 12:49:18;;;;;;;;;;;;;;;;;;5057710;28;19916;-58
2022/02/16 12:51:43;;;;;;;;;;;;;;;;;;5057052;28;20340;-58
2022/02/16 12:54:08;;;;;;;;;;;;;;;;;;5055825;28;20351;-58
2022/02/16 12:56:33;;;;;;;;;;;;;;;;;;5053931;28;19912;-58
2022/02/16 12:58:59;;;;;;;;;;;;;;;;;;5058569;28;19997;-58
2022/02/16 13:01:24;;;;;;;;;;;;;;;;;;5058035;28;20431;-58
2022/02/16 13:03:49;;;;;;;;;;;;;;;;;;5056164;28;20079;-58
2022/02/16 13:06:14;;;;;;;;;;;;;;;;;;5058598;28;20380;-58
2022/02/16 13:08:40;;;;;;;;;;;;;;;;;;5056899;28;19919;-58
2022/02/16 13:11:05;;;;;;;;;;;;;;;;;;5052774;28;19948;-58
2022/02/16 13:13:30;;;;;;;;;;;;;;;;;;5053869;28;19972;-58
2022/02/16 13:15:55;;;;;;;;;;;;;;;;;;5059066;28;19935;-57
2022/02/16 13:18:20;;;;;;;;;;;;;;;;;;5058851;28;19920;-58
2022/02/16 13:20:46;;;;;;;;;;;;;;;;;;5060733;28;19916;-57
2022/02/16 13:23:11;;;;;;;;;;;;;;;;;;5057431;28;19924;-52
2022/02/16 13:25:36;;;;;;;;;;;;;;;;;;5061241;28;20319;-50
2022/02/16 13:28:01;;;;;;;;;;;;;;;;;;5057474;28;20018;-58
2022/02/16 13:30:27;;;;;;;;;;;;;;;;;;5058562;28;20058;-55
2022/02/16 13:32:52;;;;;;;;;;;;;;;;;;5057932;28;19924;-54
2022/02/16 13:35:17;;;;;;;;;;;;;;;;;;5057895;28;20014;-57
2022/02/16 13:37:42;;;;;;;;;;;;;;;;;;5057109;28;19912;-57
2022/02/16 13:40:07;;;;;;;;;;;;;;;;;;5056256;28;19912;-53
2022/02/16 13:42:32;;;;;;;;;;;;;;;;;;5053726;28;19915;-57
2022/02/16 13:44:57;;;;;;;;;;;;;;;;;;5057018;28;19979;-58
2022/02/16 13:47:23;;;;;;;;;;;;;;;;;;5060848;28;19916;-58
2022/02/16 13:49:48;;;;;;;;;;;;;;;;;;5056453;28;19932;-58
2022/02/16 13:52:16;;;;;;;;;;;;;;;;;;5056591;28;20135;-59
2022/02/16 13:54:42;;;;;;;;;;;;;;;;;;5057900;28;19960;-58
2022/02/16 13:57:07;;;;;;;;;;;;;;;;;;5054314;28;19928;-58
2022/02/16 13:59:32;;;;;;;;;;;;;;;;;;5055427;28;19908;-58
2022/02/16 14:01:57;;;;;;;;;;;;;;;;;;5057250;28;20590;-58
2022/02/16 14:04:22;;;;;;;;;;;;;;;;;;5054431;28;19957;-58
2022/02/16 14:06:47;;;;;;;;;;;;;;;;;;5056415;28;19924;-58
2022/02/16 14:09:12;;;;;;;;;;;;;;;;;;5050683;28;20392;-59
2022/02/16 14:11:38;;;;;;;;;;;;;;;;;;5050810;28;19917;-56
2022/02/16 14:14:03;;;;;;;;;;;;;;;;;;5056678;28;19932;-56
2022/02/16 14:16:28;;;;;;;;;;;;;;;;;;5055649;28;20340;-57
2022/02/16 14:21:38;;;;;;;;;;;;;;;;;;5054738;28;19919;-56
2022/02/16 14:24:03;;;;;;;;;;;;;;;;;;5051751;28;20382;-57
2022/02/16 14:26:28;;;;;;;;;;;;;;;;;;5055532;28;19913;-57
2022/02/16 14:28:53;;;;;;;;;;;;;;;;;;5055026;28;19962;-57
2022/02/16 14:31:18;;;;;;;;;;;;;;;;;;5053179;28;19999;-57
2022/02/16 14:33:44;;;;;;;;;;;;;;;;;;5055492;28;19944;-57
2022/02/16 14:36:09;;;;;;;;;;;;;;;;;;5052636;28;20007;-57
2022/02/16 14:38:34;;;;;;;;;;;;;;;;;;5055449;28;19974;-58
2022/02/16 14:40:59;;;;;;;;;;;;;;;;;;5053458;28;20558;-58
2022/02/16 14:43:24;;;;;;;;;;;;;;;;;;5054239;28;19917;-58
2022/02/16 14:45:50;;;;;;;;;;;;;;;;;;5055197;28;19912;-58
2022/02/16 14:48:15;;;;;;;;;;;;;;;;;;5054782;28;20390;-58
2022/02/16 14:50:41;;;;;;;;;;;;;;;;;;5052897;28;19921;-58
2022/02/16 14:53:06;;;;;;;;;;;;;;;;;;5053009;28;20224;-58
2022/02/16 14:55:32;;;;;;;;;;;;;;;;;;5059249;28;20356;-59
2022/02/16 14:57:57;;;;;;;;;;;;;;;;;;5054042;28;19908;-58
2022/02/16 15:00:22;;;;;;;;;;;;;;;;;;5056062;28;20105;-58
2022/02/16 15:02:48;;;;;;;;;;;;;;;;;;5057467;28;19938;-58
2022/02/16 15:05:13;;;;;;;;;;;;;;;;;;5058970;28;20003;-58
2022/02/16 15:07:38;;;;;;;;;;;;;;;;;;5055891;28;20013;-58
2022/02/16 15:10:03;;;;;;;;;;;;;;;;;;5056841;28;19916;-59
2022/02/16 15:12:31;;;;;;;;;;;;;;;;;;5060412;28;20003;-58
2022/02/16 15:14:56;;;;;;;;;;;;;;;;;;5059354;28;19916;-58
2022/02/16 15:17:22;;;;;;;;;;;;;;;;;;5059148;28;20382;-59
2022/02/16 15:19:47;;;;;;;;;;;;;;;;;;5058899;28;19950;-59
2022/02/16 15:22:12;;;;;;;;;;;;;;;;;;5057508;28;20304;-58
2022/02/16 15:24:37;;;;;;;;;;;;;;;;;;5055158;28;19974;-59
2022/02/16 15:27:02;;;;;;;;;;;;;;;;;;5057401;28;20383;-59
2022/02/16 15:29:27;;;;;;;;;;;;;;;;;;5058316;28;19920;-58
2022/02/16 15:31:53;;;;;;;;;;;;;;;;;;5057155;28;19909;-59
2022/02/16 15:34:18;;;;;;;;;;;;;;;;;;5056475;28;20618;-58
2022/02/16 15:36:45;;;;;;;;;;;;;;;;;;5057431;28;19947;-58
2022/02/16 15:39:10;;;;;;;;;;;;;;;;;;5057848;28;19912;-59
2022/02/16 15:41:35;;;;;;;;;;;;;;;;;;5060213;28;19924;-58
2022/02/16 15:44:00;;;;;;;;;;;;;;;;;;5056882;28;19988;-59
2022/02/16 15:46:25;;;;;;;;;;;;;;;;;;5059093;28;19931;-59
2022/02/16 15:48:50;;;;;;;;;;;;;;;;;;5056717;28;19921;-58
2022/02/16 15:51:16;;;;;;;;;;;;;;;;;;5056420;28;19919;-59
2022/02/16 15:53:41;;;;;;;;;;;;;;;;;;5055232;28;20395;-58
2022/02/16 15:56:06;;;;;;;;;;;;;;;;;;5058343;28;19962;-58
2022/02/16 15:58:31;;;;;;;;;;;;;;;;;;5055794;28;19931;-59
2022/02/16 16:00:56;;;;;;;;;;;;;;;;;;5056361;28;19961;-59
2022/02/16 16:03:21;;;;;;;;;;;;;;;;;;5055828;28;19913;-59
2022/02/16 16:05:46;;;;;;;;;;;;;;;;;;5057167;28;19948;-58
2022/02/16 16:08:12;;;;;;;;;;;;;;;;;;5055833;28;19913;-58
2022/02/16 16:10:37;;;;;;;;;;;;;;;;;;5057852;28;19975;-58
2022/02/16 16:13:02;;;;;;;;;;;;;;;;;;5053752;28;19912;-58
2022/02/16 16:15:27;;;;;;;;;;;;;;;;;;5058904;28;19943;-59
2022/02/16 16:17:52;;;;;;;;;;;;;;;;;;5057912;28;19910;-58
2022/02/16 16:20:17;;;;;;;;;;;;;;;;;;5053203;28;19913;-58
2022/02/16 16:22:42;;;;;;;;;;;;;;;;;;5055960;28;19991;-59
2022/02/16 16:25:10;;;;;;;;;;;;;;;;;;5055874;28;19913;-58
2022/02/16 16:27:35;;;;;;;;;;;;;;;;;;5053815;28;19940;-58
2022/02/16 16:30:00;;;;;;;;;;;;;;;;;;5057898;28;20359;-58
2022/02/16 16:32:25;;;;;;;;;;;;;;;;;;5057433;28;19913;-58
2022/02/16 16:34:50;;;;;;;;;;;;;;;;;;5052031;28;20394;-59